createdAt,value
2023-04-03T03:40:35.313Z,100389.34
2023-04-03T03:43:39.192Z,100389.34
2023-04-03T03:46:41.843Z,100396.84
2023-04-03T03:49:44.857Z,100399.56
2023-04-03T03:52:47.568Z,100399.56
2023-04-03T03:55:50.423Z,100399.44
2023-04-03T03:58:53.640Z,100404.66
2023-04-03T04:01:57.366Z,100398.59
2023-04-03T04:05:00.284Z,100391.88
2023-04-03T04:08:03.039Z,100390.94
2023-04-03T04:11:05.973Z,100385.78
2023-04-03T04:14:08.937Z,100394.75
2023-04-03T04:17:11.783Z,100394.91
2023-04-03T04:20:14.512Z,100397.69
2023-04-03T04:23:19.461Z,100399.50
2023-04-03T04:26:22.623Z,100408.19
2023-04-03T04:29:25.627Z,100405.41
2023-04-03T04:32:29.081Z,100412.44
2023-04-03T04:35:32.069Z,100403.66
2023-04-03T04:38:35.091Z,100409.03
2023-04-03T04:41:38.060Z,100407.34
2023-04-03T04:44:41.168Z,100412.88
2023-04-03T04:47:44.216Z,100420.69
2023-04-03T04:50:47.028Z,100425.72
2023-04-03T04:53:50.066Z,100434.50
2023-04-03T04:56:53.100Z,100429.09
2023-04-03T04:59:56.309Z,100430.06
2023-04-03T05:02:59.373Z,100433.25
2023-04-03T05:06:02.496Z,100437.41
2023-04-03T05:09:06.526Z,100431.28
2023-04-03T05:12:09.820Z,100436.22
2023-04-03T05:15:12.841Z,100434.19
2023-04-03T05:18:16.030Z,100448.81
2023-04-03T05:21:24.217Z,100445.19
2023-04-03T05:24:27.681Z,100448.50
2023-04-03T05:27:31.089Z,100453.84
2023-04-03T05:30:34.204Z,100454.59
2023-04-03T05:33:38.379Z,100448.75
2023-04-03T05:36:41.618Z,100449.00
2023-04-03T05:39:44.683Z,100445.41
2023-04-03T05:42:47.988Z,100448.25
2023-04-03T05:45:52.021Z,100454.75
2023-04-03T05:48:55.459Z,100451.53
2023-04-03T05:51:58.327Z,100459.44
2023-04-03T05:55:01.654Z,100459.41
2023-04-03T05:58:05.787Z,100461.94
2023-04-03T06:01:11.662Z,100460.94
2023-04-03T06:04:15.155Z,100458.44
2023-04-03T06:07:23.665Z,100449.66
2023-04-03T06:10:27.289Z,100454.66
2023-04-03T06:13:30.494Z,100458.00
2023-04-03T06:16:33.630Z,100463.16
2023-04-03T06:19:37.161Z,100457.03
2023-04-03T06:22:41.225Z,100463.78
2023-04-03T06:25:43.948Z,100470.38
2023-04-03T06:28:46.881Z,100474.13
2023-04-03T06:31:50.293Z,100474.72
2023-04-03T06:34:54.423Z,100471.44
2023-04-03T06:37:57.651Z,100464.97
2023-04-03T06:41:01.133Z,100475.16
2023-04-03T06:47:07.205Z,100478.03
2023-04-03T06:50:12.724Z,100478.78
2023-04-03T06:53:15.903Z,100476.28
2023-04-03T06:56:19.356Z,100478.28
2023-04-03T06:59:22.271Z,100486.06
2023-04-03T07:02:24.945Z,100485.88
2023-04-03T07:05:27.939Z,100489.81
2023-04-03T07:08:31.324Z,100502.00
2023-04-03T07:11:34.367Z,100494.81
2023-04-03T07:14:37.125Z,100509.53
2023-04-03T07:17:40.074Z,100508.88
2023-04-03T07:20:42.752Z,100521.81
2023-04-03T07:23:46.500Z,100514.25
2023-04-03T07:26:51.960Z,100507.91
2023-04-03T07:29:55.602Z,100505.44
2023-04-03T07:32:59.184Z,100511.91
2023-04-03T07:36:02.917Z,100518.72
2023-04-03T07:39:05.774Z,100513.91
2023-04-03T07:42:09.097Z,100515.22
2023-04-03T07:45:11.945Z,100521.97
2023-04-03T07:48:14.904Z,100510.88
2023-04-03T07:51:17.609Z,100518.66
2023-04-03T07:54:20.445Z,100515.75
2023-04-03T07:57:23.126Z,100525.81
2023-04-03T08:00:26.168Z,100519.72
2023-04-03T08:03:29.749Z,100527.63
2023-04-03T08:06:45.926Z,100524.97
2023-04-03T08:09:50.229Z,100526.38
2023-04-03T08:12:52.881Z,100529.31
2023-04-03T08:15:58.140Z,100532.34
2023-04-03T08:19:00.929Z,100533.59
2023-04-03T08:22:04.410Z,100533.75
2023-04-03T08:25:07.740Z,100528.00
2023-04-03T08:28:12.350Z,100523.78
2023-04-03T08:31:19.602Z,100529.09
2023-04-03T08:34:22.676Z,100540.72
2023-04-03T08:37:25.264Z,100531.47
2023-04-03T08:40:28.198Z,100531.78
2023-04-03T08:43:54.382Z,100532.31
2023-04-03T08:47:12.314Z,100538.06
2023-04-03T08:50:19.526Z,100538.72
2023-04-03T08:53:29.553Z,100540.44
2023-04-03T08:56:34.749Z,100539.06
2023-04-03T08:59:40.663Z,100544.47
2023-04-03T09:02:56.149Z,100537.66
2023-04-03T09:06:07.518Z,100533.44
2023-04-03T09:09:28.864Z,100542.31
2023-04-03T09:12:43.266Z,100529.38
2023-04-03T09:15:46.089Z,100539.72
2023-04-03T09:18:54.006Z,100546.75
2023-04-03T09:21:58.677Z,100540.84
2023-04-03T09:25:14.960Z,100542.06
2023-04-03T09:28:17.559Z,100547.44
2023-04-03T09:31:25.407Z,100536.47
2023-04-03T09:34:37.849Z,100541.06
2023-04-03T09:37:43.850Z,100540.84
2023-04-03T09:40:52.548Z,100547.00
2023-04-03T09:43:56.920Z,100545.75
2023-04-03T09:47:00.507Z,100533.75
2023-04-03T09:50:18.404Z,100539.25
2023-04-03T09:53:31.825Z,100526.53
2023-04-03T09:56:35.758Z,100530.97
2023-04-03T10:00:11.954Z,100527.16
2023-04-03T10:03:36.424Z,100525.25
2023-04-03T10:06:51.755Z,100526.66
2023-04-03T10:10:24.970Z,100522.81
2023-04-03T10:13:27.619Z,100530.22
2023-04-03T10:16:40.287Z,100533.19
2023-04-03T10:19:48.060Z,100533.13
2023-04-03T10:23:12.978Z,100530.81
2023-04-03T10:26:22.943Z,100533.31
2023-04-03T10:29:28.479Z,100539.69
2023-04-03T10:33:09.459Z,100538.84
2023-04-03T10:36:36.281Z,100531.34
2023-04-03T10:40:03.385Z,100533.72
2023-04-03T10:43:45.348Z,100535.63
2023-04-03T10:46:58.604Z,100531.09
2023-04-03T10:50:18.694Z,100526.06
2023-04-03T10:53:40.164Z,100534.63
2023-04-03T10:56:51.222Z,100522.78
2023-04-03T11:00:15.800Z,100521.00
2023-04-03T11:03:34.089Z,100520.94
2023-04-03T11:06:46.790Z,100526.38
2023-04-03T11:09:58.914Z,100522.31
2023-04-03T11:13:27.614Z,100523.81
2023-04-03T11:16:43.656Z,100516.22
2023-04-03T11:20:01.368Z,100518.03
2023-04-03T11:23:15.603Z,100520.94
2023-04-03T11:26:22.470Z,100512.13
2023-04-03T11:29:39.140Z,100512.06
2023-04-03T11:33:00.500Z,100513.59
2023-04-03T11:36:24.882Z,100504.38
2023-04-03T11:39:34.723Z,100499.41
2023-04-03T11:42:43.728Z,100497.41
2023-04-03T11:46:04.062Z,100487.84
2023-04-03T11:49:45.898Z,100493.69
2023-04-03T11:52:57.854Z,100494.66
2023-04-03T11:56:02.408Z,100489.53
2023-04-03T11:59:19.319Z,100495.28
2023-04-03T12:02:51.064Z,100495.66
2023-04-03T12:06:05.578Z,100494.59
2023-04-03T12:09:43.660Z,100490.16
2023-04-03T12:12:58.720Z,100496.72
2023-04-03T12:16:01.992Z,100492.06
2023-04-03T12:19:41.153Z,100488.00
2023-04-03T12:23:08.843Z,100484.16
2023-04-03T12:26:23.182Z,100482.62
2023-04-03T12:29:36.618Z,100482.84
2023-04-03T12:33:05.783Z,100484.31
2023-04-03T12:36:27.887Z,100478.59
2023-04-03T12:40:10.387Z,100482.28
2023-04-03T12:43:47.297Z,100488.16
2023-04-03T12:46:53.082Z,100479.31
2023-04-03T12:49:56.842Z,100480.94
2023-04-03T12:52:59.796Z,100470.28
2023-04-03T12:56:21.875Z,100478.69
2023-04-03T12:59:27.468Z,100471.13
2023-04-03T13:02:32.765Z,100469.78
2023-04-03T13:05:37.222Z,100467.34
2023-04-03T13:08:50.239Z,100463.03
2023-04-03T13:12:10.834Z,100456.91
2023-04-03T13:15:26.731Z,100447.88
2023-04-03T13:18:29.821Z,100450.16
2023-04-03T13:21:36.124Z,100442.72
2023-04-03T13:24:40.551Z,100449.00
2023-04-03T13:27:45.220Z,100433.87
2023-04-03T13:31:20.602Z,100445.28
2023-04-03T13:34:26.999Z,100434.09
2023-04-03T13:37:32.671Z,100429.28
2023-04-03T13:40:57.721Z,100433.56
2023-04-03T13:44:22.408Z,100435.38
2023-04-03T13:47:26.270Z,100436.41
2023-04-03T13:50:30.399Z,100434.75
2023-04-03T13:53:35.267Z,100431.59
2023-04-03T13:56:42.912Z,100422.22
2023-04-03T13:59:45.700Z,100426.87
2023-04-03T14:02:49.501Z,100425.00
2023-04-03T14:05:52.989Z,100419.56
2023-04-03T14:08:55.810Z,100408.97
2023-04-03T14:12:06.033Z,100410.03
2023-04-03T14:15:17.241Z,100411.88
2023-04-03T14:18:21.713Z,100405.69
2023-04-03T14:21:24.557Z,100410.69
2023-04-03T14:24:28.429Z,100399.56
2023-04-03T14:27:38.950Z,100404.56
2023-04-03T14:30:42.298Z,100392.87
2023-04-03T14:33:47.924Z,100409.22
2023-04-03T14:36:51.746Z,100404.34
2023-04-03T14:39:55.128Z,100409.84
2023-04-03T14:42:59.258Z,100400.72
2023-04-03T14:46:02.579Z,100406.97
2023-04-03T14:49:15.443Z,100404.44
2023-04-03T14:52:31.371Z,100407.19
2023-04-03T14:55:34.591Z,100405.81
2023-04-03T14:58:38.110Z,100411.03
2023-04-03T15:01:41.307Z,100414.62
2023-04-03T15:04:44.229Z,100409.06
2023-04-03T15:07:57.409Z,100406.69
2023-04-03T15:11:00.029Z,100404.97
2023-04-03T15:14:03.121Z,100408.12
2023-04-03T15:17:06.884Z,100406.69
2023-04-03T15:20:15.847Z,100406.69
2023-04-03T15:23:18.731Z,100411.13
2023-04-03T15:26:21.775Z,100415.03
